sensor_id;sensor_type;location;lat;lon;timestamp;P1;durP1;ratioP1;P2;durP2;ratioP2
5616;SDS011;2830;50.656;7.568;2023-02-17T00:00:32;29.53;;;16.53;;
5616;SDS011;2830;50.656;7.568;2023-02-17T00:02:59;26.83;;;14.37;;
5616;SDS011;2830;50.656;7.568;2023-02-17T00:05:26;30.10;;;16.67;;
5616;SDS011;2830;50.656;7.568;2023-02-17T00:07:53;30.50;;;15.50;;
5616;SDS011;2830;50.656;7.568;2023-02-17T00:10:20;30.70;;;15.83;;
5616;SDS011;2830;50.656;7.568;2023-02-17T00:12:47;28.50;;;15.10;;
5616;SDS011;2830;50.656;7.568;2023-02-17T00:15:14;30.83;;;15.23;;
5616;SDS011;2830;50.656;7.568;2023-02-17T00:17:42;29.20;;;15.50;;
5616;SDS011;2830;50.656;7.568;2023-02-17T00:20:09;25.83;;;14.43;;
5616;SDS011;2830;50.656;7.568;2023-02-17T00:22:36;31.00;;;15.97;;
5616;SDS011;2830;50.656;7.568;2023-02-17T00:25:03;32.33;;;15.57;;
5616;SDS011;2830;50.656;7.568;2023-02-17T00:27:30;29.60;;;15.30;;
5616;SDS011;2830;50.656;7.568;2023-02-17T00:29:57;34.00;;;14.90;;
5616;SDS011;2830;50.656;7.568;2023-02-17T00:32:24;28.03;;;15.90;;
5616;SDS011;2830;50.656;7.568;2023-02-17T00:34:51;29.97;;;15.63;;
5616;SDS011;2830;50.656;7.568;2023-02-17T00:37:21;29.70;;;16.87;;
5616;SDS011;2830;50.656;7.568;2023-02-17T00:39:48;31.33;;;16.23;;
5616;SDS011;2830;50.656;7.568;2023-02-17T00:42:15;29.13;;;15.63;;
5616;SDS011;2830;50.656;7.568;2023-02-17T00:44:42;28.90;;;14.70;;
5616;SDS011;2830;50.656;7.568;2023-02-17T00:47:09;35.60;;;16.90;;
5616;SDS011;2830;50.656;7.568;2023-02-17T00:49:36;27.77;;;14.77;;
5616;SDS011;2830;50.656;7.568;2023-02-17T00:52:03;29.20;;;15.33;;
5616;SDS011;2830;50.656;7.568;2023-02-17T00:54:30;27.67;;;15.13;;
5616;SDS011;2830;50.656;7.568;2023-02-17T00:56:57;26.67;;;15.10;;
5616;SDS011;2830;50.656;7.568;2023-02-17T00:59:24;36.13;;;15.17;;
5616;SDS011;2830;50.656;7.568;2023-02-17T01:01:52;26.50;;;13.23;;
5616;SDS011;2830;50.656;7.568;2023-02-17T01:04:19;28.77;;;14.17;;
5616;SDS011;2830;50.656;7.568;2023-02-17T01:06:46;27.13;;;14.20;;
5616;SDS011;2830;50.656;7.568;2023-02-17T01:09:13;27.93;;;14.90;;
5616;SDS011;2830;50.656;7.568;2023-02-17T01:11:40;26.20;;;14.57;;
5616;SDS011;2830;50.656;7.568;2023-02-17T01:14:09;25.57;;;12.83;;
5616;SDS011;2830;50.656;7.568;2023-02-17T01:16:38;24.50;;;13.60;;
5616;SDS011;2830;50.656;7.568;2023-02-17T01:19:07;26.80;;;13.47;;
5616;SDS011;2830;50.656;7.568;2023-02-17T01:21:35;27.63;;;13.70;;
5616;SDS011;2830;50.656;7.568;2023-02-17T01:24:03;24.83;;;13.30;;
5616;SDS011;2830;50.656;7.568;2023-02-17T01:26:31;27.60;;;13.80;;
5616;SDS011;2830;50.656;7.568;2023-02-17T01:28:58;23.53;;;13.00;;
5616;SDS011;2830;50.656;7.568;2023-02-17T01:31:26;27.47;;;12.93;;
5616;SDS011;2830;50.656;7.568;2023-02-17T01:33:54;28.47;;;12.80;;
5616;SDS011;2830;50.656;7.568;2023-02-17T01:36:22;26.07;;;12.70;;
5616;SDS011;2830;50.656;7.568;2023-02-17T01:38:49;25.37;;;13.20;;
5616;SDS011;2830;50.656;7.568;2023-02-17T01:41:17;24.10;;;12.50;;
5616;SDS011;2830;50.656;7.568;2023-02-17T01:46:31;25.90;;;12.40;;
5616;SDS011;2830;50.656;7.568;2023-02-17T01:48:58;21.80;;;11.43;;
5616;SDS011;2830;50.656;7.568;2023-02-17T01:51:27;21.17;;;11.43;;
5616;SDS011;2830;50.656;7.568;2023-02-17T01:54:00;23.50;;;12.70;;
5616;SDS011;2830;50.656;7.568;2023-02-17T01:56:28;23.70;;;11.70;;
5616;SDS011;2830;50.656;7.568;2023-02-17T01:58:58;24.70;;;12.83;;
5616;SDS011;2830;50.656;7.568;2023-02-17T02:01:27;23.73;;;12.30;;
5616;SDS011;2830;50.656;7.568;2023-02-17T02:03:54;24.73;;;12.73;;
5616;SDS011;2830;50.656;7.568;2023-02-17T02:06:22;43.40;;;13.43;;
5616;SDS011;2830;50.656;7.568;2023-02-17T02:08:53;28.93;;;13.90;;
5616;SDS011;2830;50.656;7.568;2023-02-17T02:11:21;25.00;;;13.23;;
5616;SDS011;2830;50.656;7.568;2023-02-17T02:13:48;27.80;;;14.10;;
5616;SDS011;2830;50.656;7.568;2023-02-17T02:16:21;29.80;;;13.60;;
5616;SDS011;2830;50.656;7.568;2023-02-17T02:27:00;25.60;;;13.40;;
5616;SDS011;2830;50.656;7.568;2023-02-17T02:29:55;29.80;;;13.47;;
5616;SDS011;2830;50.656;7.568;2023-02-17T02:37:26;24.60;;;12.90;;
5616;SDS011;2830;50.656;7.568;2023-02-17T02:39:56;23.50;;;12.00;;
5616;SDS011;2830;50.656;7.568;2023-02-17T02:42:26;23.53;;;10.70;;
5616;SDS011;2830;50.656;7.568;2023-02-17T02:44:53;23.70;;;12.07;;
5616;SDS011;2830;50.656;7.568;2023-02-17T02:49:56;23.47;;;11.80;;
5616;SDS011;2830;50.656;7.568;2023-02-17T02:57:45;28.20;;;10.30;;
5616;SDS011;2830;50.656;7.568;2023-02-17T03:02:44;20.90;;;10.07;;
5616;SDS011;2830;50.656;7.568;2023-02-17T03:07:48;24.27;;;11.00;;
5616;SDS011;2830;50.656;7.568;2023-02-17T03:10:16;19.37;;;9.60;;
5616;SDS011;2830;50.656;7.568;2023-02-17T03:12:43;21.60;;;9.23;;
5616;SDS011;2830;50.656;7.568;2023-02-17T03:17:46;21.27;;;9.57;;
5616;SDS011;2830;50.656;7.568;2023-02-17T03:20:14;22.47;;;10.77;;
5616;SDS011;2830;50.656;7.568;2023-02-17T03:22:43;19.87;;;8.80;;
5616;SDS011;2830;50.656;7.568;2023-02-17T03:25:10;21.40;;;8.10;;
5616;SDS011;2830;50.656;7.568;2023-02-17T03:27:37;21.00;;;8.70;;
5616;SDS011;2830;50.656;7.568;2023-02-17T03:30:05;20.80;;;9.23;;
5616;SDS011;2830;50.656;7.568;2023-02-17T03:32:32;18.93;;;7.80;;
5616;SDS011;2830;50.656;7.568;2023-02-17T03:34:59;23.03;;;9.40;;
5616;SDS011;2830;50.656;7.568;2023-02-17T03:37:26;18.93;;;8.47;;
5616;SDS011;2830;50.656;7.568;2023-02-17T03:39:53;17.43;;;8.10;;
5616;SDS011;2830;50.656;7.568;2023-02-17T03:42:20;18.60;;;7.33;;
5616;SDS011;2830;50.656;7.568;2023-02-17T03:44:47;17.70;;;8.47;;
5616;SDS011;2830;50.656;7.568;2023-02-17T03:47:14;18.13;;;7.90;;
5616;SDS011;2830;50.656;7.568;2023-02-17T03:49:42;19.50;;;7.90;;
5616;SDS011;2830;50.656;7.568;2023-02-17T03:52:09;20.00;;;7.40;;
5616;SDS011;2830;50.656;7.568;2023-02-17T03:54:36;20.80;;;8.17;;
5616;SDS011;2830;50.656;7.568;2023-02-17T03:57:03;16.97;;;7.17;;
5616;SDS011;2830;50.656;7.568;2023-02-17T03:59:30;16.23;;;6.77;;
5616;SDS011;2830;50.656;7.568;2023-02-17T04:01:57;16.47;;;6.77;;
5616;SDS011;2830;50.656;7.568;2023-02-17T04:04:24;15.60;;;6.63;;
5616;SDS011;2830;50.656;7.568;2023-02-17T04:06:51;16.40;;;6.67;;
5616;SDS011;2830;50.656;7.568;2023-02-17T04:09:18;15.13;;;6.50;;
5616;SDS011;2830;50.656;7.568;2023-02-17T04:11:45;16.17;;;6.37;;
5616;SDS011;2830;50.656;7.568;2023-02-17T04:14:12;15.57;;;6.10;;
5616;SDS011;2830;50.656;7.568;2023-02-17T04:16:39;17.53;;;6.30;;
5616;SDS011;2830;50.656;7.568;2023-02-17T04:19:07;17.70;;;5.93;;
5616;SDS011;2830;50.656;7.568;2023-02-17T04:21:34;13.63;;;5.50;;
5616;SDS011;2830;50.656;7.568;2023-02-17T04:24:01;13.30;;;5.60;;
5616;SDS011;2830;50.656;7.568;2023-02-17T04:26:30;14.17;;;5.50;;
5616;SDS011;2830;50.656;7.568;2023-02-17T04:28:57;15.43;;;6.43;;
5616;SDS011;2830;50.656;7.568;2023-02-17T04:31:24;13.23;;;5.30;;
5616;SDS011;2830;50.656;7.568;2023-02-17T04:33:53;13.87;;;5.40;;
5616;SDS011;2830;50.656;7.568;2023-02-17T04:36:20;14.10;;;5.00;;
5616;SDS011;2830;50.656;7.568;2023-02-17T04:38:47;14.80;;;6.50;;
5616;SDS011;2830;50.656;7.568;2023-02-17T04:41:14;14.10;;;5.50;;
5616;SDS011;2830;50.656;7.568;2023-02-17T04:43:41;12.83;;;5.33;;
5616;SDS011;2830;50.656;7.568;2023-02-17T04:46:08;13.93;;;5.70;;
5616;SDS011;2830;50.656;7.568;2023-02-17T04:48:37;14.40;;;5.10;;
5616;SDS011;2830;50.656;7.568;2023-02-17T04:51:04;12.13;;;4.50;;
5616;SDS011;2830;50.656;7.568;2023-02-17T04:53:31;16.60;;;4.33;;
5616;SDS011;2830;50.656;7.568;2023-02-17T04:55:59;13.07;;;5.10;;
5616;SDS011;2830;50.656;7.568;2023-02-17T04:58:27;12.40;;;5.00;;
5616;SDS011;2830;50.656;7.568;2023-02-17T05:00:57;14.27;;;4.60;;
5616;SDS011;2830;50.656;7.568;2023-02-17T05:03:25;13.43;;;5.13;;
5616;SDS011;2830;50.656;7.568;2023-02-17T05:05:52;13.37;;;4.70;;
5616;SDS011;2830;50.656;7.568;2023-02-17T05:08:19;14.47;;;5.27;;
5616;SDS011;2830;50.656;7.568;2023-02-17T05:10:48;13.60;;;5.17;;
5616;SDS011;2830;50.656;7.568;2023-02-17T05:13:16;15.00;;;6.00;;
5616;SDS011;2830;50.656;7.568;2023-02-17T05:15:43;12.63;;;4.83;;
5616;SDS011;2830;50.656;7.568;2023-02-17T05:18:10;13.80;;;5.83;;
5616;SDS011;2830;50.656;7.568;2023-02-17T05:20:37;13.57;;;5.13;;
5616;SDS011;2830;50.656;7.568;2023-02-17T05:23:04;13.60;;;5.00;;
5616;SDS011;2830;50.656;7.568;2023-02-17T05:25:32;15.37;;;5.60;;
5616;SDS011;2830;50.656;7.568;2023-02-17T05:27:59;14.53;;;5.87;;
5616;SDS011;2830;50.656;7.568;2023-02-17T05:30:26;13.00;;;5.23;;
5616;SDS011;2830;50.656;7.568;2023-02-17T05:32:53;15.47;;;5.70;;
5616;SDS011;2830;50.656;7.568;2023-02-17T05:35:21;14.00;;;6.00;;
5616;SDS011;2830;50.656;7.568;2023-02-17T05:37:48;13.70;;;5.30;;
5616;SDS011;2830;50.656;7.568;2023-02-17T05:40:15;17.47;;;5.43;;
5616;SDS011;2830;50.656;7.568;2023-02-17T05:42:42;14.57;;;5.83;;
5616;SDS011;2830;50.656;7.568;2023-02-17T05:45:09;13.70;;;5.53;;
5616;SDS011;2830;50.656;7.568;2023-02-17T05:47:36;14.30;;;5.40;;
5616;SDS011;2830;50.656;7.568;2023-02-17T05:50:04;14.47;;;5.70;;
5616;SDS011;2830;50.656;7.568;2023-02-17T05:52:31;20.53;;;10.30;;
5616;SDS011;2830;50.656;7.568;2023-02-17T05:54:58;12.07;;;4.67;;
5616;SDS011;2830;50.656;7.568;2023-02-17T05:57:25;16.30;;;5.80;;
5616;SDS011;2830;50.656;7.568;2023-02-17T05:59:52;15.67;;;7.60;;
5616;SDS011;2830;50.656;7.568;2023-02-17T06:02:19;14.77;;;6.80;;
5616;SDS011;2830;50.656;7.568;2023-02-17T06:04:46;14.00;;;5.73;;
5616;SDS011;2830;50.656;7.568;2023-02-17T06:07:13;19.03;;;9.40;;
5616;SDS011;2830;50.656;7.568;2023-02-17T06:09:40;18.40;;;9.13;;
5616;SDS011;2830;50.656;7.568;2023-02-17T06:12:07;17.93;;;8.43;;
5616;SDS011;2830;50.656;7.568;2023-02-17T06:14:35;15.07;;;6.00;;
5616;SDS011;2830;50.656;7.568;2023-02-17T06:17:02;19.23;;;6.73;;
5616;SDS011;2830;50.656;7.568;2023-02-17T06:19:29;13.17;;;5.50;;
5616;SDS011;2830;50.656;7.568;2023-02-17T06:21:56;14.17;;;6.00;;
5616;SDS011;2830;50.656;7.568;2023-02-17T06:24:23;14.10;;;5.20;;
5616;SDS011;2830;50.656;7.568;2023-02-17T06:26:50;14.27;;;6.00;;
5616;SDS011;2830;50.656;7.568;2023-02-17T06:29:17;14.50;;;6.20;;
5616;SDS011;2830;50.656;7.568;2023-02-17T06:31:45;15.60;;;6.70;;
5616;SDS011;2830;50.656;7.568;2023-02-17T06:34:12;13.80;;;5.90;;
5616;SDS011;2830;50.656;7.568;2023-02-17T06:36:39;13.90;;;5.50;;
5616;SDS011;2830;50.656;7.568;2023-02-17T06:39:06;16.53;;;6.50;;
5616;SDS011;2830;50.656;7.568;2023-02-17T06:41:33;14.63;;;6.00;;
5616;SDS011;2830;50.656;7.568;2023-02-17T06:44:00;14.03;;;6.00;;
5616;SDS011;2830;50.656;7.568;2023-02-17T06:46:27;15.00;;;6.83;;
5616;SDS011;2830;50.656;7.568;2023-02-17T06:48:56;15.73;;;7.03;;
5616;SDS011;2830;50.656;7.568;2023-02-17T06:51:25;15.73;;;6.27;;
5616;SDS011;2830;50.656;7.568;2023-02-17T06:53:52;14.60;;;6.07;;
5616;SDS011;2830;50.656;7.568;2023-02-17T06:56:19;14.80;;;6.50;;
5616;SDS011;2830;50.656;7.568;2023-02-17T06:58:46;14.30;;;5.93;;
5616;SDS011;2830;50.656;7.568;2023-02-17T07:01:18;12.47;;;5.43;;
5616;SDS011;2830;50.656;7.568;2023-02-17T07:03:45;14.50;;;5.90;;
5616;SDS011;2830;50.656;7.568;2023-02-17T07:06:13;12.90;;;5.67;;
5616;SDS011;2830;50.656;7.568;2023-02-17T07:08:40;13.57;;;5.20;;
5616;SDS011;2830;50.656;7.568;2023-02-17T07:11:08;15.30;;;6.27;;
5616;SDS011;2830;50.656;7.568;2023-02-17T07:13:35;13.80;;;5.53;;
5616;SDS011;2830;50.656;7.568;2023-02-17T07:16:03;15.07;;;5.97;;
5616;SDS011;2830;50.656;7.568;2023-02-17T07:18:31;13.67;;;6.00;;
5616;SDS011;2830;50.656;7.568;2023-02-17T07:20:58;14.30;;;6.03;;
5616;SDS011;2830;50.656;7.568;2023-02-17T07:23:25;14.70;;;6.70;;
5616;SDS011;2830;50.656;7.568;2023-02-17T07:25:52;17.23;;;7.00;;
5616;SDS011;2830;50.656;7.568;2023-02-17T07:28:19;16.30;;;6.77;;
5616;SDS011;2830;50.656;7.568;2023-02-17T07:30:47;15.37;;;6.33;;
5616;SDS011;2830;50.656;7.568;2023-02-17T07:33:15;15.87;;;6.30;;
5616;SDS011;2830;50.656;7.568;2023-02-17T07:35:42;15.37;;;6.40;;
5616;SDS011;2830;50.656;7.568;2023-02-17T07:38:09;13.93;;;6.00;;
5616;SDS011;2830;50.656;7.568;2023-02-17T07:40:36;15.00;;;6.30;;
5616;SDS011;2830;50.656;7.568;2023-02-17T07:43:03;14.80;;;6.30;;
5616;SDS011;2830;50.656;7.568;2023-02-17T07:45:30;19.17;;;6.50;;
5616;SDS011;2830;50.656;7.568;2023-02-17T07:47:58;16.97;;;7.67;;
5616;SDS011;2830;50.656;7.568;2023-02-17T07:50:25;15.43;;;6.67;;
5616;SDS011;2830;50.656;7.568;2023-02-17T07:52:52;15.33;;;6.00;;
5616;SDS011;2830;50.656;7.568;2023-02-17T07:55:19;14.30;;;6.57;;
5616;SDS011;2830;50.656;7.568;2023-02-17T07:57:46;17.17;;;5.97;;
5616;SDS011;2830;50.656;7.568;2023-02-17T08:00:13;14.37;;;5.97;;
5616;SDS011;2830;50.656;7.568;2023-02-17T08:02:41;15.27;;;6.63;;
5616;SDS011;2830;50.656;7.568;2023-02-17T08:05:08;15.50;;;6.20;;
5616;SDS011;2830;50.656;7.568;2023-02-17T08:07:36;15.40;;;5.93;;
5616;SDS011;2830;50.656;7.568;2023-02-17T08:10:03;14.97;;;6.57;;
5616;SDS011;2830;50.656;7.568;2023-02-17T08:13:09;14.73;;;6.00;;
5616;SDS011;2830;50.656;7.568;2023-02-17T08:15:45;15.33;;;6.13;;
5616;SDS011;2830;50.656;7.568;2023-02-17T08:18:12;14.37;;;5.87;;
5616;SDS011;2830;50.656;7.568;2023-02-17T08:20:39;15.53;;;6.90;;
5616;SDS011;2830;50.656;7.568;2023-02-17T08:23:06;15.80;;;6.93;;
5616;SDS011;2830;50.656;7.568;2023-02-17T08:25:34;15.57;;;6.27;;
5616;SDS011;2830;50.656;7.568;2023-02-17T08:28:02;14.83;;;6.40;;
5616;SDS011;2830;50.656;7.568;2023-02-17T08:30:30;16.53;;;6.17;;
5616;SDS011;2830;50.656;7.568;2023-02-17T08:33:00;16.20;;;6.57;;
5616;SDS011;2830;50.656;7.568;2023-02-17T08:35:27;15.00;;;6.60;;
5616;SDS011;2830;50.656;7.568;2023-02-17T08:37:54;15.90;;;6.97;;
5616;SDS011;2830;50.656;7.568;2023-02-17T08:40:22;15.40;;;6.43;;
5616;SDS011;2830;50.656;7.568;2023-02-17T08:42:49;17.27;;;7.13;;
5616;SDS011;2830;50.656;7.568;2023-02-17T08:45:16;16.50;;;6.43;;
5616;SDS011;2830;50.656;7.568;2023-02-17T08:47:43;17.43;;;6.43;;
5616;SDS011;2830;50.656;7.568;2023-02-17T08:50:11;15.00;;;6.27;;
5616;SDS011;2830;50.656;7.568;2023-02-17T08:52:41;16.73;;;6.87;;
5616;SDS011;2830;50.656;7.568;2023-02-17T08:55:08;24.13;;;7.70;;
5616;SDS011;2830;50.656;7.568;2023-02-17T08:57:35;19.50;;;7.73;;
5616;SDS011;2830;50.656;7.568;2023-02-17T09:00:04;18.60;;;7.57;;
5616;SDS011;2830;50.656;7.568;2023-02-17T09:02:31;18.57;;;8.20;;
5616;SDS011;2830;50.656;7.568;2023-02-17T09:04:59;17.90;;;6.57;;
5616;SDS011;2830;50.656;7.568;2023-02-17T09:07:26;14.93;;;6.07;;
5616;SDS011;2830;50.656;7.568;2023-02-17T09:09:53;15.97;;;6.53;;
5616;SDS011;2830;50.656;7.568;2023-02-17T09:12:20;16.97;;;6.77;;
5616;SDS011;2830;50.656;7.568;2023-02-17T09:14:47;17.80;;;6.60;;
5616;SDS011;2830;50.656;7.568;2023-02-17T09:17:14;17.07;;;6.97;;
5616;SDS011;2830;50.656;7.568;2023-02-17T09:22:13;16.37;;;5.93;;
5616;SDS011;2830;50.656;7.568;2023-02-17T09:24:56;15.33;;;6.33;;
5616;SDS011;2830;50.656;7.568;2023-02-17T09:27:23;16.40;;;5.43;;
5616;SDS011;2830;50.656;7.568;2023-02-17T09:29:50;19.40;;;6.10;;
5616;SDS011;2830;50.656;7.568;2023-02-17T09:32:17;14.60;;;5.23;;
5616;SDS011;2830;50.656;7.568;2023-02-17T09:34:45;14.00;;;5.40;;
5616;SDS011;2830;50.656;7.568;2023-02-17T09:37:18;15.23;;;6.03;;
5616;SDS011;2830;50.656;7.568;2023-02-17T09:39:46;12.83;;;4.77;;
5616;SDS011;2830;50.656;7.568;2023-02-17T09:42:17;13.63;;;4.77;;
5616;SDS011;2830;50.656;7.568;2023-02-17T09:44:50;13.80;;;4.43;;
5616;SDS011;2830;50.656;7.568;2023-02-17T09:47:21;14.30;;;4.10;;
5616;SDS011;2830;50.656;7.568;2023-02-17T09:50:04;13.37;;;4.07;;
5616;SDS011;2830;50.656;7.568;2023-02-17T09:55:06;13.70;;;4.00;;
5616;SDS011;2830;50.656;7.568;2023-02-17T09:57:44;12.60;;;3.63;;
5616;SDS011;2830;50.656;7.568;2023-02-17T10:00:13;12.63;;;3.60;;
5616;SDS011;2830;50.656;7.568;2023-02-17T10:02:44;15.53;;;4.83;;
5616;SDS011;2830;50.656;7.568;2023-02-17T10:05:14;13.67;;;4.50;;
5616;SDS011;2830;50.656;7.568;2023-02-17T10:07:50;15.23;;;3.60;;
5616;SDS011;2830;50.656;7.568;2023-02-17T10:10:20;14.40;;;3.77;;
5616;SDS011;2830;50.656;7.568;2023-02-17T10:12:55;15.00;;;3.20;;
5616;SDS011;2830;50.656;7.568;2023-02-17T10:15:23;12.77;;;3.10;;
5616;SDS011;2830;50.656;7.568;2023-02-17T10:18:34;12.20;;;2.80;;
5616;SDS011;2830;50.656;7.568;2023-02-17T10:23:19;11.80;;;2.83;;
5616;SDS011;2830;50.656;7.568;2023-02-17T10:28:37;12.93;;;1.90;;
5616;SDS011;2830;50.656;7.568;2023-02-17T10:31:11;12.20;;;2.20;;
5616;SDS011;2830;50.656;7.568;2023-02-17T10:33:46;11.87;;;1.70;;
5616;SDS011;2830;50.656;7.568;2023-02-17T10:36:29;12.47;;;1.90;;
5616;SDS011;2830;50.656;7.568;2023-02-17T10:39:00;12.53;;;1.97;;
5616;SDS011;2830;50.656;7.568;2023-02-17T10:41:33;11.57;;;1.57;;
5616;SDS011;2830;50.656;7.568;2023-02-17T10:44:01;14.97;;;1.97;;
5616;SDS011;2830;50.656;7.568;2023-02-17T10:46:32;12.10;;;1.60;;
5616;SDS011;2830;50.656;7.568;2023-02-17T10:49:00;11.43;;;1.40;;
5616;SDS011;2830;50.656;7.568;2023-02-17T10:51:28;12.80;;;1.77;;
5616;SDS011;2830;50.656;7.568;2023-02-17T10:54:06;11.00;;;1.50;;
5616;SDS011;2830;50.656;7.568;2023-02-17T10:56:40;11.50;;;1.70;;
5616;SDS011;2830;50.656;7.568;2023-02-17T10:59:14;14.77;;;2.07;;
5616;SDS011;2830;50.656;7.568;2023-02-17T11:01:44;11.60;;;1.70;;
5616;SDS011;2830;50.656;7.568;2023-02-17T11:04:11;11.63;;;1.80;;
5616;SDS011;2830;50.656;7.568;2023-02-17T11:06:44;11.53;;;2.37;;
5616;SDS011;2830;50.656;7.568;2023-02-17T11:11:49;12.00;;;1.80;;
5616;SDS011;2830;50.656;7.568;2023-02-17T11:14:23;11.33;;;1.30;;
5616;SDS011;2830;50.656;7.568;2023-02-17T11:16:58;11.63;;;1.70;;
5616;SDS011;2830;50.656;7.568;2023-02-17T11:19:30;11.17;;;1.20;;
5616;SDS011;2830;50.656;7.568;2023-02-17T11:22:00;11.77;;;2.10;;
5616;SDS011;2830;50.656;7.568;2023-02-17T11:24:28;11.00;;;1.30;;
5616;SDS011;2830;50.656;7.568;2023-02-17T11:27:03;12.40;;;1.50;;
5616;SDS011;2830;50.656;7.568;2023-02-17T11:29:30;10.83;;;1.30;;
5616;SDS011;2830;50.656;7.568;2023-02-17T11:32:06;13.03;;;1.80;;
5616;SDS011;2830;50.656;7.568;2023-02-17T11:34:35;12.60;;;1.40;;
5616;SDS011;2830;50.656;7.568;2023-02-17T11:39:35;10.90;;;1.20;;
5616;SDS011;2830;50.656;7.568;2023-02-17T11:42:37;11.53;;;1.40;;
5616;SDS011;2830;50.656;7.568;2023-02-17T11:44:58;10.80;;;1.17;;
5616;SDS011;2830;50.656;7.568;2023-02-17T11:52:57;10.77;;;1.10;;
5616;SDS011;2830;50.656;7.568;2023-02-17T11:58:12;10.87;;;1.00;;
5616;SDS011;2830;50.656;7.568;2023-02-17T12:03:20;10.43;;;1.00;;
5616;SDS011;2830;50.656;7.568;2023-02-17T12:08:29;10.50;;;1.10;;
5616;SDS011;2830;50.656;7.568;2023-02-17T12:11:05;11.63;;;1.00;;
5616;SDS011;2830;50.656;7.568;2023-02-17T12:13:41;10.53;;;1.17;;
5616;SDS011;2830;50.656;7.568;2023-02-17T12:18:47;10.70;;;1.17;;
5616;SDS011;2830;50.656;7.568;2023-02-17T12:21:19;11.20;;;1.10;;
5616;SDS011;2830;50.656;7.568;2023-02-17T12:29:02;12.67;;;2.20;;
5616;SDS011;2830;50.656;7.568;2023-02-17T12:34:24;11.80;;;0.87;;
5616;SDS011;2830;50.656;7.568;2023-02-17T12:36:55;9.93;;;0.90;;
5616;SDS011;2830;50.656;7.568;2023-02-17T12:39:24;12.20;;;1.07;;
5616;SDS011;2830;50.656;7.568;2023-02-17T12:41:56;9.87;;;0.80;;
5616;SDS011;2830;50.656;7.568;2023-02-17T12:44:32;10.00;;;0.93;;
5616;SDS011;2830;50.656;7.568;2023-02-17T12:47:04;9.87;;;0.63;;
5616;SDS011;2830;50.656;7.568;2023-02-17T12:49:47;11.63;;;0.80;;
5616;SDS011;2830;50.656;7.568;2023-02-17T12:52:31;10.70;;;0.90;;
5616;SDS011;2830;50.656;7.568;2023-02-17T12:55:09;9.97;;;0.80;;
5616;SDS011;2830;50.656;7.568;2023-02-17T12:57:40;10.30;;;0.80;;
5616;SDS011;2830;50.656;7.568;2023-02-17T13:00:17;10.63;;;1.17;;
5616;SDS011;2830;50.656;7.568;2023-02-17T13:02:46;10.03;;;0.93;;
5616;SDS011;2830;50.656;7.568;2023-02-17T13:06:18;10.97;;;0.87;;
5616;SDS011;2830;50.656;7.568;2023-02-17T13:11:01;9.77;;;0.70;;
5616;SDS011;2830;50.656;7.568;2023-02-17T13:13:28;9.93;;;0.70;;
5616;SDS011;2830;50.656;7.568;2023-02-17T13:16:02;10.20;;;0.80;;
5616;SDS011;2830;50.656;7.568;2023-02-17T13:18:35;10.33;;;0.90;;
5616;SDS011;2830;50.656;7.568;2023-02-17T13:26:28;10.30;;;1.00;;
5616;SDS011;2830;50.656;7.568;2023-02-17T13:29:06;10.10;;;0.80;;
5616;SDS011;2830;50.656;7.568;2023-02-17T13:31:43;10.50;;;0.90;;
5616;SDS011;2830;50.656;7.568;2023-02-17T13:34:10;11.10;;;0.87;;
5616;SDS011;2830;50.656;7.568;2023-02-17T13:36:49;9.87;;;0.80;;
5616;SDS011;2830;50.656;7.568;2023-02-17T13:41:53;10.40;;;1.10;;
5616;SDS011;2830;50.656;7.568;2023-02-17T13:44:37;12.60;;;0.80;;
5616;SDS011;2830;50.656;7.568;2023-02-17T13:47:10;9.90;;;0.87;;
5616;SDS011;2830;50.656;7.568;2023-02-17T13:49:38;10.30;;;0.70;;
5616;SDS011;2830;50.656;7.568;2023-02-17T13:52:16;10.13;;;0.70;;
5616;SDS011;2830;50.656;7.568;2023-02-17T13:54:50;9.93;;;0.80;;
5616;SDS011;2830;50.656;7.568;2023-02-17T13:57:30;9.90;;;0.80;;
5616;SDS011;2830;50.656;7.568;2023-02-17T14:02:53;10.40;;;1.43;;
5616;SDS011;2830;50.656;7.568;2023-02-17T14:07:51;9.83;;;0.80;;
5616;SDS011;2830;50.656;7.568;2023-02-17T14:10:23;9.80;;;0.70;;
5616;SDS011;2830;50.656;7.568;2023-02-17T14:12:51;10.10;;;0.90;;
5616;SDS011;2830;50.656;7.568;2023-02-17T14:15:20;10.03;;;0.70;;
5616;SDS011;2830;50.656;7.568;2023-02-17T14:17:48;9.77;;;0.80;;
5616;SDS011;2830;50.656;7.568;2023-02-17T14:20:25;10.30;;;0.97;;
5616;SDS011;2830;50.656;7.568;2023-02-17T14:23:00;11.00;;;1.20;;
5616;SDS011;2830;50.656;7.568;2023-02-17T14:25:30;10.50;;;0.90;;
5616;SDS011;2830;50.656;7.568;2023-02-17T14:27:57;9.80;;;0.80;;
5616;SDS011;2830;50.656;7.568;2023-02-17T14:30:35;10.30;;;0.80;;
5616;SDS011;2830;50.656;7.568;2023-02-17T14:38:26;10.40;;;0.90;;
5616;SDS011;2830;50.656;7.568;2023-02-17T14:40:54;10.33;;;0.90;;
5616;SDS011;2830;50.656;7.568;2023-02-17T14:43:21;9.87;;;1.00;;
5616;SDS011;2830;50.656;7.568;2023-02-17T14:45:49;10.80;;;0.90;;
5616;SDS011;2830;50.656;7.568;2023-02-17T14:48:16;10.90;;;1.20;;
5616;SDS011;2830;50.656;7.568;2023-02-17T14:50:43;10.37;;;1.10;;
5616;SDS011;2830;50.656;7.568;2023-02-17T14:55:41;10.73;;;1.23;;
5616;SDS011;2830;50.656;7.568;2023-02-17T14:58:19;10.80;;;1.37;;
5616;SDS011;2830;50.656;7.568;2023-02-17T15:00:47;15.00;;;1.67;;
5616;SDS011;2830;50.656;7.568;2023-02-17T15:03:14;9.97;;;1.00;;
5616;SDS011;2830;50.656;7.568;2023-02-17T15:05:41;12.57;;;1.00;;
5616;SDS011;2830;50.656;7.568;2023-02-17T15:08:12;10.30;;;1.20;;
5616;SDS011;2830;50.656;7.568;2023-02-17T15:10:40;11.17;;;1.00;;
5616;SDS011;2830;50.656;7.568;2023-02-17T15:13:17;9.77;;;1.03;;
5616;SDS011;2830;50.656;7.568;2023-02-17T15:15:45;9.50;;;0.90;;
5616;SDS011;2830;50.656;7.568;2023-02-17T15:18:15;11.00;;;1.10;;
5616;SDS011;2830;50.656;7.568;2023-02-17T15:20:43;11.07;;;1.80;;
5616;SDS011;2830;50.656;7.568;2023-02-17T15:23:14;10.13;;;1.23;;
5616;SDS011;2830;50.656;7.568;2023-02-17T15:25:41;10.67;;;1.60;;
5616;SDS011;2830;50.656;7.568;2023-02-17T15:28:16;10.10;;;1.10;;
5616;SDS011;2830;50.656;7.568;2023-02-17T15:30:45;20.73;;;1.40;;
5616;SDS011;2830;50.656;7.568;2023-02-17T15:33:13;10.10;;;1.13;;
5616;SDS011;2830;50.656;7.568;2023-02-17T15:35:40;10.73;;;1.10;;
5616;SDS011;2830;50.656;7.568;2023-02-17T15:38:10;10.93;;;1.07;;
5616;SDS011;2830;50.656;7.568;2023-02-17T15:40:37;10.50;;;1.50;;
5616;SDS011;2830;50.656;7.568;2023-02-17T15:43:04;10.93;;;1.30;;
5616;SDS011;2830;50.656;7.568;2023-02-17T15:45:32;11.10;;;1.43;;
5616;SDS011;2830;50.656;7.568;2023-02-17T15:48:03;12.13;;;1.40;;
5616;SDS011;2830;50.656;7.568;2023-02-17T15:50:31;10.50;;;1.20;;
5616;SDS011;2830;50.656;7.568;2023-02-17T15:52:58;10.23;;;1.13;;
5616;SDS011;2830;50.656;7.568;2023-02-17T15:55:25;13.03;;;1.50;;
5616;SDS011;2830;50.656;7.568;2023-02-17T15:57:57;11.33;;;1.30;;
5616;SDS011;2830;50.656;7.568;2023-02-17T16:00:25;10.77;;;1.37;;
5616;SDS011;2830;50.656;7.568;2023-02-17T16:02:53;12.20;;;1.30;;
5616;SDS011;2830;50.656;7.568;2023-02-17T16:05:21;12.87;;;1.57;;
5616;SDS011;2830;50.656;7.568;2023-02-17T16:07:48;11.40;;;1.63;;
5616;SDS011;2830;50.656;7.568;2023-02-17T16:10:17;10.63;;;1.47;;
5616;SDS011;2830;50.656;7.568;2023-02-17T16:12:45;11.63;;;1.80;;
5616;SDS011;2830;50.656;7.568;2023-02-17T16:15:13;10.70;;;1.63;;
5616;SDS011;2830;50.656;7.568;2023-02-17T16:17:41;12.80;;;1.87;;
5616;SDS011;2830;50.656;7.568;2023-02-17T16:20:15;12.90;;;1.70;;
5616;SDS011;2830;50.656;7.568;2023-02-17T16:22:43;12.20;;;1.67;;
5616;SDS011;2830;50.656;7.568;2023-02-17T16:25:11;11.37;;;1.70;;
5616;SDS011;2830;50.656;7.568;2023-02-17T16:27:39;11.53;;;1.83;;
5616;SDS011;2830;50.656;7.568;2023-02-17T16:30:18;13.50;;;2.37;;
5616;SDS011;2830;50.656;7.568;2023-02-17T16:32:45;11.30;;;2.10;;
5616;SDS011;2830;50.656;7.568;2023-02-17T16:35:17;12.30;;;2.90;;
5616;SDS011;2830;50.656;7.568;2023-02-17T16:37:59;11.43;;;1.90;;
5616;SDS011;2830;50.656;7.568;2023-02-17T16:40:27;13.70;;;3.13;;
5616;SDS011;2830;50.656;7.568;2023-02-17T16:42:54;12.53;;;3.10;;
5616;SDS011;2830;50.656;7.568;2023-02-17T16:45:23;12.20;;;3.07;;
5616;SDS011;2830;50.656;7.568;2023-02-17T16:47:51;11.30;;;2.90;;